Time;durP1;ratioP1;P1;durP2;ratioP2;P2;SDS_P1;SDS_P2;PMS_P1;PMS_P2;Temp;Humidity;BMP_temperature;BMP_pressure;BME280_temperature;BME280_humidity;BME280_pressure;Samples;Min_cycle;Max_cycle;Signal;HPM_P1;HPM_P2
2023/01/07 12:07:50;;;;;;;6.47;3.30;;;11.30;99.90;;;;;;4999336;28;20061;-83
2023/01/07 12:48:06;;;;;;;5.25;2.95;;;11.60;99.90;;;;;;5012683;23;20054;-79
2023/01/07 12:51:06;;;;;;;3.67;2.70;;;11.70;99.90;;;;;;4979917;28;20411;-82
2023/01/07 13:54:49;;;;;;;5.88;3.15;;;11.90;99.90;;;;;;5789613;22;20041;-81
2023/01/07 15:03:26;;;;;;;5.35;2.40;;;11.70;99.90;;;;;;5003894;28;20051;-86
2023/01/07 15:06:24;;;;;;;4.53;3.08;;;11.70;99.90;;;;;;4990731;28;20030;-84
2023/01/07 15:17:49;;;;;;;5.47;2.90;;;11.50;99.90;;;;;;5004890;28;19917;-87
2023/01/07 15:21:10;;;;;;;5.85;3.28;;;11.50;99.90;;;;;;4980805;28;20036;-84
2023/01/07 15:24:40;;;;;;;6.28;2.90;;;11.40;99.90;;;;;;4992378;28;20034;-84
2023/01/07 15:27:43;;;;;;;8.57;3.47;;;11.40;99.90;;;;;;4985994;28;20022;-84
2023/01/07 15:30:26;;;;;;;5.57;2.75;;;11.40;99.90;;;;;;5004599;28;20034;-86
2023/01/07 15:33:17;;;;;;;4.95;2.88;;;11.40;99.90;;;;;;4997279;28;20033;-86
2023/01/07 15:36:03;;;;;;;4.93;2.88;;;11.40;99.90;;;;;;4951665;29;20072;-85
2023/01/07 15:38:49;;;;;;;4.82;2.88;;;11.30;99.90;;;;;;4991232;28;20053;-86
2023/01/07 15:41:38;;;;;;;5.07;2.90;;;11.20;99.90;;;;;;4988947;28;20030;-85
2023/01/07 15:44:34;;;;;;;6.93;3.22;;;11.20;99.90;;;;;;4982586;28;20042;-87
2023/01/07 15:47:02;;;;;;;6.95;3.25;;;11.20;99.90;;;;;;4989608;28;20030;-87
2023/01/07 15:49:28;;;;;;;6.05;3.47;;;11.20;99.90;;;;;;4998508;28;20022;-84
2023/01/07 15:51:56;;;;;;;5.47;3.75;;;11.20;99.90;;;;;;4980255;28;20031;-80
2023/01/07 15:54:22;;;;;;;6.85;3.25;;;11.20;99.90;;;;;;4982604;28;20495;-84
2023/01/07 15:56:48;;;;;;;7.68;4.00;;;11.20;99.90;;;;;;4976920;28;20025;-83
2023/01/07 15:59:23;;;;;;;6.10;3.75;;;11.10;99.90;;;;;;4982032;28;20483;-81
2023/01/07 16:01:51;;;;;;;5.95;3.40;;;11.10;99.90;;;;;;4978306;28;20398;-83
2023/01/07 16:04:31;;;;;;;5.10;3.08;;;11.10;99.90;;;;;;4987665;28;20517;-85
2023/01/07 16:06:58;;;;;;;4.28;2.80;;;11.10;99.90;;;;;;4977728;28;20062;-83
2023/01/07 16:09:25;;;;;;;5.78;2.97;;;11.00;99.90;;;;;;4982355;28;20143;-84
2023/01/07 16:11:51;;;;;;;5.45;3.35;;;11.10;99.90;;;;;;4982403;28;20022;-85
2023/01/07 16:14:20;;;;;;;5.15;3.25;;;11.00;99.90;;;;;;4968367;28;20018;-85
2023/01/07 16:16:46;;;;;;;4.95;2.85;;;12.50;99.90;;;;;;4976868;28;20019;-83
2023/01/07 16:19:17;;;;;;;4.28;2.75;;;11.60;99.90;;;;;;4980797;28;20045;-84
2023/01/07 16:21:53;;;;;;;6.45;3.53;;;10.90;99.90;;;;;;4963485;28;20027;-85
2023/01/07 16:24:19;;;;;;;5.53;3.45;;;11.00;99.90;;;;;;4990193;28;20019;-83
2023/01/07 16:26:50;;;;;;;7.85;3.05;;;10.90;99.90;;;;;;4976407;28;20034;-85
2023/01/07 16:29:31;;;;;;;6.30;3.58;;;10.90;99.90;;;;;;5006883;28;20026;-82
2023/01/07 16:31:58;;;;;;;6.47;3.20;;;10.80;99.90;;;;;;5002285;28;20015;-81
2023/01/07 16:34:24;;;;;;;5.43;3.10;;;10.90;99.90;;;;;;4987397;28;20029;-80
2023/01/07 16:36:57;;;;;;;8.55;3.67;;;10.70;99.90;;;;;;4992563;28;20037;-83
2023/01/07 16:39:38;;;;;;;4.35;3.05;;;10.60;99.90;;;;;;4988654;28;20015;-84
2023/01/07 16:42:21;;;;;;;7.47;3.47;;;10.60;99.90;;;;;;4977914;28;20129;-81
2023/01/07 16:44:53;;;;;;;10.27;3.30;;;10.60;99.90;;;;;;4976101;28;20030;-83
2023/01/07 16:47:22;;;;;;;4.43;3.10;;;10.60;99.90;;;;;;4975885;28;20525;-85
2023/01/07 16:49:49;;;;;;;5.35;3.05;;;10.60;99.90;;;;;;4987997;28;20108;-80
2023/01/07 16:52:17;;;;;;;4.80;2.85;;;10.50;99.90;;;;;;4986006;28;20443;-84
2023/01/07 16:54:46;;;;;;;5.72;3.67;;;10.50;99.90;;;;;;4977380;28;20050;-83
2023/01/07 16:57:12;;;;;;;6.60;3.40;;;9.60;99.90;;;;;;4962819;28;20514;-81
2023/01/07 16:59:45;;;;;;;7.68;3.80;;;10.50;99.90;;;;;;4981523;28;20039;-82
2023/01/07 17:02:28;;;;;;;5.57;3.25;;;10.40;99.90;;;;;;4983568;28;20066;-84
2023/01/07 17:05:14;;;;;;;6.15;3.47;;;10.40;99.90;;;;;;4981247;28;20026;-81
2023/01/07 17:07:41;;;;;;;6.72;3.55;;;10.40;99.90;;;;;;4980274;28;20110;-82
2023/01/07 17:10:36;;;;;;;5.38;3.03;;;10.40;99.90;;;;;;4996074;28;20124;-82
2023/01/07 17:13:03;;;;;;;5.03;3.15;;;10.50;99.90;;;;;;4994446;28;20050;-83
2023/01/07 17:15:32;;;;;;;4.43;2.83;;;10.50;99.90;;;;;;4982621;28;20030;-80
2023/01/07 17:18:10;;;;;;;6.90;3.20;;;10.50;99.90;;;;;;4999603;28;21521;-84
2023/01/07 17:20:48;;;;;;;6.63;3.65;;;10.50;99.90;;;;;;4976982;28;20053;-80
2023/01/07 17:23:26;;;;;;;5.82;2.88;;;10.50;99.90;;;;;;4979797;28;20038;-82
2023/01/07 17:26:04;;;;;;;5.97;3.50;;;10.50;99.90;;;;;;4995175;28;20081;-81
2023/01/07 17:28:34;;;;;;;6.28;3.67;;;10.50;99.90;;;;;;4978126;28;20029;-82
2023/01/07 17:31:00;;;;;;;7.78;4.15;;;10.90;99.90;;;;;;5003000;28;20550;-83
2023/01/07 17:33:26;;;;;;;6.20;4.00;;;10.70;99.90;;;;;;5000678;28;20034;-79
2023/01/07 17:35:56;;;;;;;5.68;3.25;;;10.40;99.90;;;;;;5001819;28;20034;-84
2023/01/07 17:38:22;;;;;;;6.30;3.90;;;10.40;99.90;;;;;;5000928;28;20038;-83
2023/01/07 17:40:48;;;;;;;6.05;3.58;;;10.40;99.90;;;;;;4983549;28;20026;-80
2023/01/07 17:43:34;;;;;;;9.63;4.50;;;10.40;99.90;;;;;;4985229;28;20061;-84
2023/01/07 17:46:05;;;;;;;6.28;3.67;;;10.40;99.90;;;;;;4986627;28;20007;-84
2023/01/07 17:48:31;;;;;;;7.88;4.47;;;10.30;99.90;;;;;;4989071;28;20026;-83
2023/01/07 17:50:59;;;;;;;9.48;4.80;;;10.30;99.90;;;;;;4991344;28;20045;-81
2023/01/07 17:53:28;;;;;;;9.93;4.85;;;10.50;99.90;;;;;;4987848;28;20295;-81
2023/01/07 17:55:54;;;;;;;9.35;5.05;;;10.20;99.90;;;;;;5004011;28;20052;-83
2023/01/07 17:58:31;;;;;;;8.85;4.80;;;10.50;99.90;;;;;;4981933;28;20026;-81
2023/01/07 18:00:59;;;;;;;9.00;4.22;;;9.60;99.90;;;;;;5004914;28;20022;-81
2023/01/07 18:03:25;;;;;;;7.40;4.15;;;10.10;99.90;;;;;;5002877;28;20215;-83
2023/01/07 18:05:51;;;;;;;6.97;4.40;;;10.20;99.90;;;;;;4987579;28;20398;-83
2023/01/07 18:08:17;;;;;;;6.72;4.75;;;;;;;;;;4981814;28;20158;-81
2023/01/07 18:13:28;;;;;;;7.72;4.65;;;10.40;99.90;;;;;;4997779;28;20034;-80
2023/01/07 18:15:58;;;;;;;11.20;5.20;;;10.10;99.90;;;;;;4980929;28;20554;-81
2023/01/07 18:18:25;;;;;;;7.60;4.70;;;10.40;99.90;;;;;;4974943;28;20030;-82
2023/01/07 18:20:52;;;;;;;8.02;4.93;;;10.60;99.90;;;;;;4999826;28;20042;-81
2023/01/07 18:23:19;;;;;;;9.65;4.85;;;10.10;99.90;;;;;;4987810;28;20022;-82
2023/01/07 18:25:45;;;;;;;9.43;5.38;;;10.00;99.90;;;;;;4975429;28;20046;-83
2023/01/07 18:28:10;;;;;;;8.07;4.88;;;10.80;99.90;;;;;;4974270;28;20031;-82
2023/01/07 18:30:37;;;;;;;9.68;5.13;;;10.00;99.90;;;;;;4973548;28;20034;-80
2023/01/07 18:33:04;;;;;;;8.48;4.82;;;10.00;99.90;;;;;;4978728;28;20030;-83
2023/01/07 18:35:30;;;;;;;7.40;4.40;;;10.10;99.90;;;;;;4984256;28;20215;-85
2023/01/07 18:37:59;;;;;;;9.13;5.00;;;10.70;99.90;;;;;;4975939;28;20062;-82
2023/01/07 18:40:25;;;;;;;7.10;4.65;;;10.10;99.90;;;;;;4972793;28;20341;-84
2023/01/07 18:42:54;;;;;;;7.07;4.53;;;10.10;99.90;;;;;;4992887;28;20388;-85
2023/01/07 18:45:21;;;;;;;9.52;5.15;;;10.10;99.90;;;;;;4978287;28;20031;-84
2023/01/07 18:47:47;;;;;;;7.13;4.40;;;10.10;99.90;;;;;;4978867;28;20069;-79
2023/01/07 18:50:13;;;;;;;7.53;4.63;;;10.00;99.90;;;;;;4974601;28;20027;-82
2023/01/07 18:52:40;;;;;;;10.02;5.22;;;10.10;99.90;;;;;;4974634;28;20392;-83
2023/01/07 18:55:08;;;;;;;7.80;5.25;;;11.20;99.90;;;;;;4991353;28;20030;-79
2023/01/07 18:57:34;;;;;;;8.38;5.07;;;10.10;99.90;;;;;;4980220;28;20113;-81
2023/01/07 19:00:00;;;;;;;6.35;3.97;;;10.20;99.90;;;;;;4979052;28;20541;-81
2023/01/07 19:02:28;;;;;;;8.35;5.10;;;10.10;99.90;;;;;;4993726;28;20038;-81
2023/01/07 19:04:54;;;;;;;8.32;5.50;;;10.60;99.90;;;;;;4989644;28;20088;-82
2023/01/07 19:07:20;;;;;;;6.70;4.65;;;10.20;99.90;;;;;;4984630;28;20018;-82
2023/01/07 19:09:46;;;;;;;6.95;3.67;;;9.80;99.90;;;;;;4985010;28;20135;-84
2023/01/07 19:12:11;;;;;;;6.60;3.85;;;10.30;99.90;;;;;;4973907;28;20030;-83
2023/01/07 19:14:38;;;;;;;7.32;4.13;;;10.60;99.90;;;;;;4979573;28;20019;-84
2023/01/07 19:17:04;;;;;;;9.13;4.00;;;10.40;99.90;;;;;;4976477;28;20037;-82
2023/01/07 19:19:30;;;;;;;7.53;4.00;;;10.50;99.90;;;;;;4980152;28;20027;-85
2023/01/07 19:21:55;;;;;;;5.43;3.58;;;10.50;99.90;;;;;;4980420;28;20040;-84
2023/01/07 19:24:22;;;;;;;8.00;4.55;;;10.50;99.90;;;;;;4983540;28;20034;-83
2023/01/07 19:26:50;;;;;;;7.35;4.32;;;10.50;99.90;;;;;;4993215;28;20030;-82
2023/01/07 19:29:16;;;;;;;8.07;4.05;;;10.60;99.90;;;;;;4979406;28;20027;-83
2023/01/07 19:31:44;;;;;;;5.80;3.65;;;10.50;99.90;;;;;;4979746;28;20031;-82
2023/01/07 19:34:10;;;;;;;9.30;4.18;;;11.30;99.90;;;;;;4978778;28;20038;-81
2023/01/07 19:36:36;;;;;;;8.20;4.00;;;12.10;99.90;;;;;;4977067;28;20116;-83
2023/01/07 19:39:02;;;;;;;7.53;4.53;;;10.70;99.90;;;;;;4983788;28;20035;-84
2023/01/07 19:41:28;;;;;;;7.05;4.10;;;10.70;99.90;;;;;;4993130;28;20059;-81
2023/01/07 19:44:00;;;;;;;6.50;3.45;;;10.70;99.90;;;;;;4975312;28;20022;-79
2023/01/07 19:46:26;;;;;;;7.35;3.85;;;11.10;99.90;;;;;;4978798;28;20046;-84
2023/01/07 19:48:52;;;;;;;8.73;3.50;;;10.80;99.90;;;;;;4981544;28;20034;-81
2023/01/07 19:51:18;;;;;;;5.97;3.45;;;10.80;99.90;;;;;;4981233;28;20027;-83
2023/01/07 19:53:46;;;;;;;5.20;3.45;;;10.80;99.90;;;;;;4982239;28;20392;-81
2023/01/07 19:56:12;;;;;;;6.22;3.13;;;10.80;99.90;;;;;;4987329;28;20045;-82
2023/01/07 19:58:39;;;;;;;6.38;3.58;;;10.80;99.90;;;;;;4976024;28;20038;-79
2023/01/07 20:01:13;;;;;;;5.90;4.53;;;10.90;99.90;;;;;;4973195;28;20088;-82
2023/01/07 20:03:38;;;;;;;5.97;3.47;;;10.90;99.90;;;;;;4974219;28;20033;-83
2023/01/07 20:06:08;;;;;;;5.35;3.30;;;10.90;99.90;;;;;;4975353;28;20026;-81
2023/01/07 20:08:34;;;;;;;5.22;3.40;;;10.90;99.90;;;;;;4988064;28;20028;-79
2023/01/07 20:10:59;;;;;;;5.43;3.40;;;10.90;99.90;;;;;;4974302;28;20031;-79
2023/01/07 20:13:27;;;;;;;5.32;3.40;;;10.90;99.90;;;;;;4971608;28;20368;-82
2023/01/07 20:15:53;;;;;;;6.28;3.38;;;10.90;99.90;;;;;;4986802;28;20721;-81
2023/01/07 20:18:19;;;;;;;8.15;3.58;;;11.00;99.90;;;;;;4994458;28;20029;-81
2023/01/07 20:20:58;;;;;;;5.60;4.10;;;11.00;99.90;;;;;;4993780;28;20223;-80
2023/01/07 20:23:30;;;;;;;5.93;3.40;;;11.20;99.90;;;;;;4990046;28;20026;-80
2023/01/07 20:25:56;;;;;;;5.78;3.58;;;10.90;99.90;;;;;;5000602;28;20034;-82
2023/01/07 20:28:21;;;;;;;7.47;3.67;;;10.80;99.90;;;;;;4987434;28;20023;-82
2023/01/07 20:31:07;;;;;;;8.20;4.00;;;10.80;99.90;;;;;;5011744;22;20072;-88
2023/01/07 20:33:43;;;;;;;7.50;3.40;;;10.80;99.90;;;;;;4988185;28;20026;-88
2023/01/07 20:36:11;;;;;;;5.15;3.60;;;10.30;99.90;;;;;;4985734;28;20022;-88
2023/01/07 20:38:38;;;;;;;5.72;3.60;;;;;;;;;;4962415;28;20089;-90
2023/01/07 20:41:10;;;;;;;6.97;4.25;;;10.80;99.90;;;;;;4985624;28;20121;-88
2023/01/07 20:43:36;;;;;;;6.93;4.10;;;11.60;99.90;;;;;;4962394;28;20017;-88
2023/01/07 20:46:08;;;;;;;6.25;3.60;;;10.90;99.90;;;;;;4965680;28;20046;-89
2023/01/07 20:48:35;;;;;;;7.10;4.00;;;11.00;99.90;;;;;;4966584;28;20010;-87
2023/01/07 20:51:10;;;;;;;5.70;3.78;;;11.60;99.90;;;;;;4972148;28;20018;-87
2023/01/07 20:53:36;;;;;;;6.72;3.50;;;10.90;99.90;;;;;;4980239;28;20147;-88
2023/01/07 20:56:06;;;;;;;5.10;3.33;;;10.80;99.90;;;;;;4964179;28;20095;-89
2023/01/07 20:58:36;;;;;;;6.90;3.80;;;10.80;99.90;;;;;;4986057;28;20011;-88
2023/01/07 21:01:03;;;;;;;;;;;10.90;99.90;;;;;;4964042;28;20054;-89
2023/01/07 21:03:29;;;;;;;5.93;3.33;;;10.10;99.90;;;;;;4982872;28;19984;-88
2023/01/07 21:05:56;;;;;;;5.05;3.25;;;11.60;99.90;;;;;;4985132;28;20354;-88
2023/01/07 21:08:23;;;;;;;6.22;3.70;;;11.20;99.90;;;;;;4983980;28;20023;-88
2023/01/07 21:10:49;;;;;;;7.32;4.10;;;10.70;99.90;;;;;;4969693;28;20026;-89
2023/01/07 21:13:15;;;;;;;7.45;3.67;;;;;;;;;;4986924;28;20034;-88
2023/01/07 21:15:41;;;;;;;6.40;3.83;;;10.80;99.90;;;;;;4970275;28;20812;-88
2023/01/07 21:18:07;;;;;;;5.97;3.72;;;11.00;99.90;;;;;;4972265;28;20034;-89
2023/01/07 21:20:33;;;;;;;6.25;3.53;;;;;;;;;;4971796;28;20076;-88
2023/01/07 21:23:37;;;;;;;7.03;3.75;;;10.80;99.90;;;;;;4971404;28;20524;-90
2023/01/07 21:27:09;;;;;;;6.22;3.72;;;11.30;99.90;;;;;;4887140;29;20017;-87
2023/01/07 21:30:27;;;;;;;6.47;3.70;;;10.80;99.90;;;;;;4876595;29;20026;-86
2023/01/07 21:32:40;;;;;;;6.13;3.65;;;10.70;99.90;;;;;;4938408;28;20028;-87
2023/01/07 21:35:19;;;;;;;7.05;4.07;;;10.70;99.90;;;;;;4943010;29;20069;-90
2023/01/07 21:37:51;;;;;;;5.95;3.28;;;10.70;99.90;;;;;;4915384;29;20051;-87
2023/01/07 21:40:17;;;;;;;5.93;3.22;;;10.90;99.90;;;;;;4960347;28;20066;-87
2023/01/07 21:42:43;;;;;;;5.93;3.67;;;;;;;;;;4984356;28;20027;-86
2023/01/07 21:45:09;;;;;;;6.95;4.30;;;10.60;99.90;;;;;;4981440;28;20043;-88
2023/01/07 21:47:35;;;;;;;5.43;3.50;;;10.60;99.90;;;;;;4957386;28;20031;-85
2023/01/07 21:50:01;;;;;;;6.68;4.25;;;;;;;;;;4958068;28;20031;-87
2023/01/07 21:52:34;;;;;;;6.75;3.50;;;10.50;99.90;;;;;;4980873;28;20023;-86
2023/01/07 21:54:59;;;;;;;4.75;3.17;;;10.60;99.90;;;;;;4967542;28;20102;-86
2023/01/07 21:57:25;;;;;;;5.45;3.33;;;10.70;99.90;;;;;;4971951;28;20027;-88
2023/01/07 21:59:54;;;;;;;5.95;3.78;;;10.50;99.90;;;;;;4957088;28;20034;-86
2023/01/07 22:02:20;;;;;;;6.07;3.70;;;10.50;99.90;;;;;;4965863;28;20023;-87
2023/01/07 22:04:46;;;;;;;6.45;4.10;;;11.50;99.90;;;;;;4975613;28;20023;-84
2023/01/07 22:07:34;;;;;;;9.07;3.67;;;11.30;99.90;;;;;;4964258;28;20027;-88
2023/01/07 22:09:59;;;;;;;5.47;3.80;;;10.50;99.90;;;;;;4963096;28;20047;-88
2023/01/07 22:12:28;;;;;;;6.68;3.95;;;10.50;99.90;;;;;;4967202;28;20704;-86
2023/01/07 22:15:08;;;;;;;5.40;3.90;;;10.30;99.90;;;;;;4983872;28;20035;-86
2023/01/07 22:17:44;;;;;;;9.68;4.30;;;10.30;99.90;;;;;;4969060;28;20543;-87
2023/01/07 22:20:11;;;;;;;7.20;4.30;;;10.50;99.90;;;;;;4976353;28;20045;-88
2023/01/07 22:22:37;;;;;;;6.05;3.97;;;;;;;;;;4963954;28;20090;-89
2023/01/07 22:25:03;;;;;;;8.15;4.18;;;10.20;99.90;;;;;;4966948;28;20030;-89
2023/01/07 22:27:28;;;;;;;13.52;4.47;;;10.20;99.90;;;;;;4967576;28;20039;-89
2023/01/07 22:29:57;;;;;;;7.35;3.95;;;10.20;99.90;;;;;;4966281;28;20114;-88
2023/01/07 22:32:23;;;;;;;6.47;4.00;;;9.60;99.90;;;;;;4960226;28;20039;-91
2023/01/07 22:34:49;;;;;;;9.18;4.43;;;;;;;;;;4980836;28;20042;-85
2023/01/07 22:37:22;;;;;;;5.82;4.00;;;10.20;99.90;;;;;;4956820;28;20050;-87
2023/01/07 22:40:00;;;;;;;8.20;4.05;;;10.10;99.90;;;;;;4960727;28;20023;-87
2023/01/07 22:42:41;;;;;;;6.40;4.18;;;10.50;99.90;;;;;;4978136;28;20034;-88
2023/01/07 22:45:56;;;;;;;5.28;3.55;;;10.20;99.90;;;;;;4980148;28;20744;-88
2023/01/07 22:48:34;;;;;;;6.55;3.90;;;11.40;99.90;;;;;;4921602;28;20027;-91
2023/01/07 22:51:14;;;;;;;6.40;3.95;;;10.20;99.90;;;;;;4962945;28;20022;-86
2023/01/07 22:53:40;;;;;;;7.57;4.28;;;;;;;;;;4954899;28;20128;-86
2023/01/07 22:56:09;;;;;;;7.55;4.05;;;10.20;99.90;;;;;;4975978;28;20039;-87
2023/01/07 22:58:41;;;;;;;5.75;4.15;;;10.20;99.90;;;;;;4962548;28;20054;-87
2023/01/07 23:01:14;;;;;;;6.75;4.53;;;10.20;99.90;;;;;;4965294;28;20098;-88
2023/01/07 23:03:41;;;;;;;7.55;4.20;;;10.00;99.90;;;;;;4979279;28;20059;-89
2023/01/07 23:08:52;;;;;;;6.97;4.13;;;;;;;;;;1487984;26;20109;-81
2023/01/07 23:11:58;;;;;;;7.88;4.22;;;10.20;99.90;;;;;;4994452;28;20019;-83
2023/01/07 23:14:34;;;;;;;9.30;5.57;;;10.20;99.90;;;;;;4993867;28;20090;-82
2023/01/07 23:17:09;;;;;;;8.30;4.80;;;;;;;;;;4994064;28;20019;-81
2023/01/07 23:19:38;;;;;;;8.65;5.00;;;10.20;99.90;;;;;;4994142;28;20043;-82
2023/01/07 23:22:04;;;;;;;11.23;4.82;;;10.30;99.90;;;;;;4990720;28;20090;-81
2023/01/07 23:24:42;;;;;;;8.90;4.65;;;;;;;;;;4980487;28;20058;-81
2023/01/07 23:27:08;;;;;;;6.70;4.15;;;10.30;99.90;;;;;;4990554;28;20045;-81
2023/01/07 23:29:34;;;;;;;7.43;4.50;;;;;;;;;;4962679;28;20019;-80
2023/01/07 23:32:11;;;;;;;8.80;4.13;;;10.30;99.90;;;;;;4997129;28;20013;-79
2023/01/07 23:34:39;;;;;;;8.10;4.78;;;10.30;99.90;;;;;;4995096;28;20002;-81
2023/01/07 23:37:06;;;;;;;8.10;4.55;;;11.30;99.90;;;;;;4986291;28;20037;-81
2023/01/07 23:39:33;;;;;;;7.22;4.82;;;;;;;;;;4997739;28;20034;-81
2023/01/07 23:42:00;;;;;;;6.60;4.88;;;10.30;99.90;;;;;;4977746;28;20114;-81
2023/01/07 23:44:26;;;;;;;8.40;4.95;;;10.20;99.90;;;;;;4990642;28;20023;-81
2023/01/07 23:46:52;;;;;;;6.53;4.22;;;;;;;;;;4993618;28;20145;-82
2023/01/07 23:49:20;;;;;;;10.27;6.57;;;10.30;99.90;;;;;;4980727;28;20027;-81
2023/01/07 23:51:46;;;;;;;8.02;4.90;;;;;;;;;;4981753;28;20014;-81
2023/01/07 23:54:12;;;;;;;8.95;5.50;;;;;;;;;;4994200;28;20082;-82
2023/01/07 23:56:38;;;;;;;7.80;4.78;;;;;;;;;;4989746;28;20038;-82
2023/01/07 23:59:05;;;;;;;7.63;4.40;;;;;;;;;;4998895;28;20015;-81
